createdAt,value
2019-02-14T00:00:11.655Z,21.00
2019-02-14T00:02:40.443Z,22.20
2019-02-14T00:05:16.265Z,22.37
2019-02-14T00:07:40.106Z,19.90
2019-02-14T00:10:08.987Z,20.80
2019-02-14T00:12:37.826Z,20.92
2019-02-14T00:15:07.494Z,20.15
2019-02-14T00:17:37.095Z,18.48
2019-02-14T00:20:06.194Z,19.73
2019-02-14T00:22:35.157Z,20.40
2019-02-14T00:25:04.050Z,20.55
2019-02-14T00:27:32.762Z,20.32
2019-02-14T00:30:01.513Z,20.20
2019-02-14T00:32:30.222Z,20.02
2019-02-14T00:34:58.931Z,20.82
2019-02-14T00:37:27.694Z,20.97
2019-02-14T00:39:56.394Z,20.60
2019-02-14T00:42:25.189Z,20.62
2019-02-14T00:44:53.910Z,21.35
2019-02-14T00:47:22.610Z,21.15
2019-02-14T00:49:51.357Z,22.85
2019-02-14T00:52:20.064Z,23.12
2019-02-14T00:54:48.804Z,23.12
2019-02-14T00:57:17.637Z,21.80
2019-02-14T00:59:46.426Z,21.93
2019-02-14T01:02:15.243Z,22.90
2019-02-14T01:04:43.966Z,23.27
2019-02-14T01:07:12.697Z,23.60
2019-02-14T01:09:41.418Z,21.45
2019-02-14T01:12:10.523Z,22.05
2019-02-14T01:14:39.394Z,21.10
2019-02-14T01:17:08.113Z,22.02
2019-02-14T01:19:37.148Z,21.35
2019-02-14T01:22:05.854Z,22.42
2019-02-14T01:24:34.581Z,21.57
2019-02-14T01:27:03.441Z,22.02
2019-02-14T01:29:32.156Z,23.15
2019-02-14T01:32:00.971Z,19.48
2019-02-14T01:34:29.703Z,22.02
2019-02-14T01:36:58.431Z,22.00
2019-02-14T01:39:27.200Z,21.90
2019-02-14T01:41:56.057Z,21.97
2019-02-14T01:44:24.774Z,22.30
2019-02-14T01:46:53.502Z,22.42
2019-02-14T01:49:22.246Z,21.95
2019-02-14T01:51:50.983Z,22.17
2019-02-14T01:54:19.730Z,21.68
2019-02-14T01:56:48.466Z,23.83
2019-02-14T01:59:17.194Z,22.37
2019-02-14T02:01:45.983Z,22.13
2019-02-14T02:04:14.722Z,22.00
2019-02-14T02:06:43.437Z,23.12
2019-02-14T02:09:14.494Z,22.20
2019-02-14T02:11:43.698Z,23.30
2019-02-14T02:14:12.408Z,24.47
2019-02-14T02:16:41.118Z,22.32
2019-02-14T02:19:10.088Z,22.48
2019-02-14T02:21:41.535Z,22.25
2019-02-14T02:24:10.359Z,24.07
2019-02-14T02:26:39.131Z,22.65
2019-02-14T02:29:07.947Z,23.27
2019-02-14T02:31:36.745Z,24.02
2019-02-14T02:34:05.832Z,25.02
2019-02-14T02:36:34.623Z,23.83
2019-02-14T02:39:04.888Z,23.87
2019-02-14T02:41:33.629Z,25.30
2019-02-14T02:44:02.372Z,25.70
2019-02-14T02:46:31.103Z,24.10
2019-02-14T02:49:01.869Z,26.05
2019-02-14T02:51:30.637Z,23.90
2019-02-14T02:53:59.546Z,24.47
2019-02-14T02:56:28.404Z,24.25
2019-02-14T02:58:57.191Z,26.62
2019-02-14T03:01:25.915Z,24.72
2019-02-14T03:03:54.637Z,24.10
2019-02-14T03:06:24.334Z,23.57
2019-02-14T03:08:53.063Z,24.18
2019-02-14T03:11:21.785Z,23.85
2019-02-14T03:13:50.536Z,23.50
2019-02-14T03:16:19.267Z,24.35
2019-02-14T03:18:47.995Z,24.52
2019-02-14T03:21:17.610Z,24.87
2019-02-14T03:23:46.306Z,24.80
2019-02-14T03:26:15.014Z,25.52
2019-02-14T03:28:43.772Z,23.35
2019-02-14T03:31:12.643Z,25.12
2019-02-14T03:33:41.413Z,23.67
2019-02-14T03:36:18.514Z,24.77
2019-02-14T03:38:40.805Z,25.23
2019-02-14T03:41:09.548Z,25.02
2019-02-14T03:43:38.370Z,24.55
2019-02-14T03:46:07.086Z,23.67
2019-02-14T03:48:35.819Z,23.90
2019-02-14T03:51:04.658Z,23.10
2019-02-14T03:53:33.381Z,21.85
2019-02-14T03:56:02.080Z,24.00
2019-02-14T03:58:30.838Z,22.13
2019-02-14T04:00:59.566Z,22.52
2019-02-14T04:03:28.327Z,22.87
2019-02-14T04:05:57.182Z,22.73
2019-02-14T04:08:25.890Z,21.95
2019-02-14T04:10:54.598Z,22.05
2019-02-14T04:13:23.323Z,22.90
2019-02-14T04:15:52.105Z,24.32
2019-02-14T04:18:20.826Z,22.65
2019-02-14T04:20:49.694Z,21.82
2019-02-14T04:23:18.446Z,21.62
2019-02-14T04:25:47.159Z,21.40
2019-02-14T04:28:15.950Z,22.73
2019-02-14T04:30:44.661Z,23.38
2019-02-14T04:33:13.372Z,23.38
2019-02-14T04:35:42.146Z,22.65
2019-02-14T04:38:10.877Z,22.13
2019-02-14T04:40:39.738Z,20.17
2019-02-14T04:43:08.489Z,21.20
2019-02-14T04:45:37.182Z,21.35
2019-02-14T04:48:05.970Z,20.85
2019-02-14T04:50:34.757Z,21.00
2019-02-14T04:53:03.502Z,21.40
2019-02-14T04:55:32.211Z,21.27
2019-02-14T04:58:00.930Z,21.02
2019-02-14T05:00:29.694Z,21.02
2019-02-14T05:02:58.447Z,22.13
2019-02-14T05:05:27.150Z,20.20
2019-02-14T05:07:55.890Z,21.37
2019-02-14T05:10:24.617Z,20.85
2019-02-14T05:12:53.324Z,21.42
2019-02-14T05:15:22.206Z,19.55
2019-02-14T05:17:50.954Z,20.20
2019-02-14T05:20:19.744Z,20.48
2019-02-14T05:22:48.581Z,21.17
2019-02-14T05:25:17.363Z,21.30
2019-02-14T05:27:46.094Z,19.15
2019-02-14T05:30:14.960Z,21.27
2019-02-14T05:32:43.738Z,19.55
2019-02-14T05:35:12.438Z,18.07
2019-02-14T05:37:41.316Z,19.35
2019-02-14T05:40:10.101Z,19.05
2019-02-14T05:42:39.005Z,18.90
2019-02-14T05:45:08.730Z,19.73
2019-02-14T05:47:37.555Z,18.70
2019-02-14T05:50:06.555Z,17.77
2019-02-14T05:52:35.303Z,20.57
2019-02-14T05:55:04.134Z,19.87
2019-02-14T05:57:32.915Z,16.75
2019-02-14T06:00:01.714Z,17.70
2019-02-14T06:02:32.157Z,17.82
2019-02-14T06:05:01.116Z,17.90
2019-02-14T06:07:29.918Z,17.05
2019-02-14T06:09:58.688Z,18.32
2019-02-14T06:12:28.238Z,16.02
2019-02-14T06:15:06.668Z,17.00
2019-02-14T06:17:35.622Z,17.07
2019-02-14T06:20:04.422Z,17.65
2019-02-14T06:22:33.154Z,17.85
2019-02-14T06:25:01.910Z,16.40
2019-02-14T06:27:30.989Z,17.82
2019-02-14T06:29:59.858Z,18.55
2019-02-14T06:32:28.597Z,17.20
2019-02-14T06:34:57.414Z,17.57
2019-02-14T06:37:26.196Z,16.97
2019-02-14T06:39:54.951Z,17.10
2019-02-14T06:42:23.868Z,18.20
2019-02-14T06:44:52.753Z,18.90
2019-02-14T06:47:21.648Z,17.23
2019-02-14T06:49:50.418Z,18.52
2019-02-14T06:52:19.178Z,16.70
2019-02-14T06:54:47.910Z,18.40
2019-02-14T06:57:16.661Z,16.62
2019-02-14T06:59:48.374Z,16.90
2019-02-14T07:02:17.278Z,17.10
2019-02-14T07:04:47.534Z,17.73
2019-02-14T07:07:18.700Z,18.90
2019-02-14T07:09:46.810Z,18.02
2019-02-14T07:12:15.628Z,18.82
2019-02-14T07:15:03.834Z,19.48
2019-02-14T07:17:32.646Z,19.05
2019-02-14T07:20:01.488Z,19.42
2019-02-14T07:22:30.218Z,19.25
2019-02-14T07:24:59.490Z,20.15
2019-02-14T07:27:28.734Z,19.62
2019-02-14T07:29:57.584Z,20.45
2019-02-14T07:32:26.470Z,20.48
2019-02-14T07:34:55.233Z,20.27
2019-02-14T07:37:26.818Z,20.12
2019-02-14T07:39:55.118Z,20.72
2019-02-14T07:42:27.509Z,19.98
2019-02-14T07:44:56.318Z,21.55
2019-02-14T07:47:25.060Z,20.92
2019-02-14T07:49:53.914Z,20.48
2019-02-14T07:52:25.285Z,20.10
2019-02-14T07:54:53.243Z,20.77
2019-02-14T07:57:22.190Z,21.40
2019-02-14T07:59:51.134Z,20.62
2019-02-14T08:02:19.942Z,19.50
2019-02-14T08:04:48.699Z,19.73
2019-02-14T08:07:17.566Z,21.50
2019-02-14T08:09:46.583Z,22.42
2019-02-14T08:12:15.345Z,21.60
2019-02-14T08:14:44.086Z,21.27
2019-02-14T08:17:12.812Z,20.43
2019-02-14T08:19:41.511Z,21.62
2019-02-14T08:22:10.240Z,21.15
2019-02-14T08:24:38.970Z,21.35
2019-02-14T08:27:07.727Z,20.70
2019-02-14T08:29:36.523Z,21.15
2019-02-14T08:32:05.302Z,21.27
2019-02-14T08:34:36.201Z,21.97
2019-02-14T08:37:04.957Z,21.35
2019-02-14T08:39:33.692Z,21.20
2019-02-14T08:42:02.459Z,22.32
2019-02-14T08:44:31.278Z,21.10
2019-02-14T08:47:00.004Z,22.13
2019-02-14T08:49:28.726Z,19.27
2019-02-14T08:51:57.459Z,19.42
2019-02-14T08:54:27.749Z,19.10
2019-02-14T08:56:56.455Z,18.70
2019-02-14T08:59:25.354Z,19.00
2019-02-14T09:01:54.135Z,19.80
2019-02-14T09:04:22.961Z,20.08
2019-02-14T09:06:51.813Z,20.02
2019-02-14T09:09:20.763Z,21.37
2019-02-14T09:11:51.590Z,20.62
2019-02-14T09:14:20.398Z,19.20
2019-02-14T09:16:50.797Z,19.85
2019-02-14T09:19:19.726Z,19.50
2019-02-14T09:21:48.522Z,19.73
2019-02-14T09:24:17.314Z,19.35
2019-02-14T09:26:46.111Z,19.87
2019-02-14T09:29:14.830Z,19.37
2019-02-14T09:31:43.658Z,18.32
2019-02-14T09:34:12.464Z,18.67
2019-02-14T09:36:41.196Z,19.17
2019-02-14T09:39:09.994Z,18.42
2019-02-14T09:41:38.781Z,18.40
2019-02-14T09:44:07.537Z,19.40
2019-02-14T09:46:36.257Z,18.77
2019-02-14T09:49:06.431Z,16.48
2019-02-14T09:51:35.172Z,17.50
2019-02-14T09:54:04.043Z,18.07
2019-02-14T09:56:32.850Z,18.00
2019-02-14T09:59:01.742Z,17.45
2019-02-14T10:01:30.467Z,17.42
2019-02-14T10:03:59.206Z,17.95
2019-02-14T10:06:36.351Z,16.02
2019-02-14T10:09:00.531Z,17.48
2019-02-14T10:11:28.966Z,16.55
2019-02-14T10:13:57.686Z,17.00
2019-02-14T10:16:26.408Z,16.65
2019-02-14T10:18:55.152Z,18.42
2019-02-14T10:21:23.954Z,15.05
2019-02-14T10:23:52.709Z,17.05
2019-02-14T10:26:21.527Z,16.15
2019-02-14T10:28:50.266Z,15.83
2019-02-14T10:31:19.175Z,15.83
2019-02-14T10:33:47.922Z,15.88
2019-02-14T10:36:16.673Z,15.68
2019-02-14T10:38:46.470Z,16.57
2019-02-14T10:41:15.354Z,17.73
2019-02-14T10:43:48.810Z,15.48
2019-02-14T10:46:14.638Z,15.07
2019-02-14T10:48:43.397Z,15.13
2019-02-14T10:51:14.069Z,15.60
2019-02-14T10:53:42.791Z,15.37
2019-02-14T10:56:11.530Z,15.63
2019-02-14T10:58:40.269Z,15.05
2019-02-14T11:01:09.058Z,16.30
2019-02-14T11:03:37.806Z,15.43
2019-02-14T11:06:06.608Z,15.93
2019-02-14T11:08:35.438Z,14.70
2019-02-14T11:11:04.174Z,14.63
2019-02-14T11:13:32.954Z,13.90
2019-02-14T11:16:01.687Z,14.53
2019-02-14T11:18:31.689Z,14.03
2019-02-14T11:21:00.497Z,13.80
2019-02-14T11:23:29.414Z,13.47
2019-02-14T11:25:58.139Z,13.50
2019-02-14T11:28:26.938Z,13.77
2019-02-14T11:31:14.931Z,12.77
2019-02-14T11:33:43.718Z,11.67
2019-02-14T11:36:12.479Z,11.87
2019-02-14T11:38:41.386Z,12.73
2019-02-14T11:41:10.119Z,12.07
2019-02-14T11:43:38.870Z,12.90
2019-02-14T11:46:07.716Z,11.70
2019-02-14T11:48:36.730Z,12.43
2019-02-14T11:51:05.474Z,12.70
2019-02-14T11:53:34.323Z,12.37
2019-02-14T11:56:03.159Z,11.67
2019-02-14T11:58:31.892Z,10.93
2019-02-14T12:01:29.188Z,10.53
2019-02-14T12:03:57.998Z,9.63
2019-02-14T12:06:26.818Z,9.87
2019-02-14T12:09:00.075Z,10.20
2019-02-14T12:11:27.888Z,10.40
2019-02-14T12:13:56.714Z,9.70
2019-02-14T12:16:25.542Z,10.03
2019-02-14T12:18:54.342Z,9.63
2019-02-14T12:21:24.482Z,10.40
2019-02-14T12:23:56.220Z,8.87
2019-02-14T12:26:24.968Z,9.37
2019-02-14T12:28:53.924Z,10.37
2019-02-14T12:31:22.696Z,10.10
2019-02-14T12:33:51.545Z,9.93
2019-02-14T12:36:20.710Z,10.40
2019-02-14T12:38:49.482Z,10.50
2019-02-14T12:41:18.270Z,10.60
2019-02-14T12:43:46.990Z,11.07
2019-02-14T12:46:15.747Z,12.30
2019-02-14T12:48:44.546Z,13.43
2019-02-14T12:51:13.285Z,13.30
2019-02-14T12:53:42.034Z,13.70
2019-02-14T12:56:10.758Z,12.40
2019-02-14T12:58:39.558Z,14.33
2019-02-14T13:01:08.371Z,15.07
2019-02-14T13:03:37.097Z,15.50
2019-02-14T13:06:05.898Z,13.57
2019-02-14T13:08:34.634Z,14.30
2019-02-14T13:11:03.430Z,14.67
2019-02-14T13:13:33.013Z,14.93
2019-02-14T13:16:01.882Z,14.17
2019-02-14T13:18:30.609Z,13.43
2019-02-14T13:20:59.422Z,13.40
2019-02-14T13:23:28.166Z,13.23
2019-02-14T13:25:56.894Z,13.17
2019-02-14T13:28:25.614Z,13.10
2019-02-14T13:30:56.562Z,12.97
2019-02-14T13:33:25.313Z,13.23
2019-02-14T13:35:54.138Z,12.20
2019-02-14T13:38:24.515Z,13.03
2019-02-14T13:40:54.654Z,12.27
2019-02-14T13:43:23.586Z,12.57
2019-02-14T13:45:52.490Z,11.60
2019-02-14T13:48:21.227Z,11.00
2019-02-14T13:50:50.062Z,11.23
2019-02-14T13:53:18.942Z,10.97
2019-02-14T13:55:49.209Z,11.13
2019-02-14T13:58:17.921Z,11.63
2019-02-14T14:00:46.731Z,12.37
2019-02-14T14:03:19.280Z,11.27
2019-02-14T14:05:48.087Z,12.20
2019-02-14T14:08:16.923Z,11.90
2019-02-14T14:10:45.716Z,11.20
2019-02-14T14:13:14.534Z,11.57
2019-02-14T14:15:43.316Z,12.77
2019-02-14T14:18:12.047Z,12.00
2019-02-14T14:20:40.757Z,11.93
2019-02-14T14:23:09.512Z,12.23
2019-02-14T14:25:38.262Z,12.07
2019-02-14T14:28:07.099Z,11.80
2019-02-14T14:30:35.849Z,12.27
2019-02-14T14:33:04.650Z,11.80
2019-02-14T14:35:35.038Z,11.10
2019-02-14T14:38:03.797Z,11.80
2019-02-14T14:40:32.602Z,11.20
2019-02-14T14:43:32.778Z,11.00
2019-02-14T14:46:19.523Z,11.00
2019-02-14T14:48:48.482Z,10.77
2019-02-14T14:51:17.221Z,11.03
2019-02-14T14:53:46.058Z,11.17
2019-02-14T14:56:14.862Z,12.03
2019-02-14T14:58:45.521Z,12.67
2019-02-14T15:01:14.250Z,12.80
2019-02-14T15:03:42.977Z,12.30
2019-02-14T15:06:11.746Z,11.93
2019-02-14T15:08:40.506Z,12.77
2019-02-14T15:11:11.883Z,12.37
2019-02-14T15:13:40.782Z,11.97
2019-02-14T15:16:09.574Z,12.23
2019-02-14T15:18:41.086Z,13.17
2019-02-14T15:21:09.890Z,12.60
2019-02-14T15:23:38.614Z,11.87
2019-02-14T15:26:09.159Z,13.40
2019-02-14T15:28:37.871Z,13.07
2019-02-14T15:31:06.574Z,12.67
2019-02-14T15:33:35.352Z,12.57
2019-02-14T15:36:04.259Z,12.77
2019-02-14T15:38:34.625Z,12.57
2019-02-14T15:41:06.050Z,12.60
2019-02-14T15:43:34.784Z,14.40
2019-02-14T15:46:03.520Z,13.80
2019-02-14T15:48:34.730Z,13.50
2019-02-14T15:51:03.559Z,12.83
2019-02-14T15:53:32.390Z,14.17
2019-02-14T15:56:01.158Z,13.90
2019-02-14T15:58:30.693Z,13.50
2019-02-14T16:01:00.423Z,13.67
2019-02-14T16:03:29.214Z,14.00
2019-02-14T16:06:03.621Z,13.40
2019-02-14T16:08:32.352Z,14.20
2019-02-14T16:11:01.131Z,13.63
2019-02-14T16:13:31.713Z,13.30
2019-02-14T16:16:07.571Z,12.90
2019-02-14T16:18:36.447Z,14.07
2019-02-14T16:21:07.907Z,14.40
2019-02-14T16:23:36.742Z,14.40
2019-02-14T16:26:05.488Z,14.63
2019-02-14T16:28:36.028Z,14.70
2019-02-14T16:31:04.818Z,14.53
2019-02-14T16:33:33.562Z,14.93
2019-02-14T16:36:02.428Z,15.03
2019-02-14T16:38:32.986Z,17.20
2019-02-14T16:41:01.688Z,20.77
2019-02-14T16:43:33.331Z,18.97
2019-02-14T16:46:02.131Z,20.30
2019-02-14T16:48:30.936Z,23.93
2019-02-14T16:50:59.722Z,20.03
2019-02-14T16:53:28.502Z,17.57
2019-02-14T16:56:02.152Z,15.67
2019-02-14T16:58:27.721Z,17.47
2019-02-14T17:00:56.558Z,18.53
2019-02-14T17:03:25.316Z,18.43
2019-02-14T17:05:54.110Z,19.37
2019-02-14T17:08:23.668Z,20.27
2019-02-14T17:10:52.467Z,17.83
2019-02-14T17:13:21.231Z,19.60
2019-02-14T17:15:50.098Z,18.57
2019-02-14T17:18:19.083Z,19.23
2019-02-14T17:20:47.834Z,21.10
2019-02-14T17:23:16.586Z,21.27
2019-02-14T17:25:45.333Z,21.07
2019-02-14T17:28:14.060Z,20.90
2019-02-14T17:30:43.052Z,28.30
2019-02-14T17:33:11.786Z,32.77
2019-02-14T17:35:40.631Z,30.75
2019-02-14T17:38:09.722Z,27.67
2019-02-14T17:40:45.791Z,28.98
2019-02-14T17:43:09.822Z,22.30
2019-02-14T17:45:38.743Z,23.15
2019-02-14T17:48:08.335Z,20.82
2019-02-14T17:50:37.610Z,20.65
2019-02-14T17:53:06.500Z,20.48
2019-02-14T17:55:35.369Z,21.07
2019-02-14T17:58:04.180Z,50.80
2019-02-14T18:00:35.042Z,25.60
2019-02-14T18:03:03.966Z,21.70
2019-02-14T18:05:32.729Z,19.95
2019-02-14T18:08:01.458Z,19.90
2019-02-14T18:10:30.379Z,21.80
2019-02-14T18:12:59.170Z,18.80
2019-02-14T18:15:27.965Z,19.55
2019-02-14T18:17:56.871Z,18.85
2019-02-14T18:20:25.681Z,20.70
2019-02-14T18:22:54.554Z,20.97
2019-02-14T18:25:23.603Z,21.17
2019-02-14T18:27:52.448Z,20.20
2019-02-14T18:30:21.363Z,21.68
2019-02-14T18:32:50.095Z,20.85
2019-02-14T18:35:18.957Z,20.60
2019-02-14T18:37:47.721Z,20.88
2019-02-14T18:40:17.231Z,21.10
2019-02-14T18:42:46.151Z,21.23
2019-02-14T18:45:14.875Z,20.27
2019-02-14T18:47:43.626Z,19.05
2019-02-14T18:50:12.535Z,18.95
2019-02-14T18:52:41.406Z,17.15
2019-02-14T18:55:10.606Z,18.02
2019-02-14T18:57:39.467Z,16.70
2019-02-14T19:00:12.313Z,16.50
2019-02-14T19:02:42.814Z,17.12
2019-02-14T19:05:12.103Z,16.50
2019-02-14T19:07:44.493Z,16.93
2019-02-14T19:10:13.247Z,17.32
2019-02-14T19:12:44.105Z,17.87
2019-02-14T19:15:13.017Z,17.60
2019-02-14T19:17:41.819Z,18.10
2019-02-14T19:20:11.398Z,17.65
2019-02-14T19:22:40.229Z,16.97
2019-02-14T19:25:09.074Z,17.05
2019-02-14T19:27:37.830Z,16.65
2019-02-14T19:30:06.702Z,18.48
2019-02-14T19:32:35.662Z,17.15
2019-02-14T19:35:05.066Z,19.10
2019-02-14T19:37:34.002Z,16.50
2019-02-14T19:40:02.750Z,17.50
2019-02-14T19:42:32.118Z,18.32
2019-02-14T19:45:00.920Z,18.17
2019-02-14T19:47:29.846Z,19.80
2019-02-14T19:50:01.773Z,18.52
2019-02-14T19:52:30.631Z,19.02
2019-02-14T19:55:06.574Z,20.32
2019-02-14T19:57:41.602Z,19.77
2019-02-14T20:00:11.945Z,21.30
2019-02-14T20:02:40.772Z,21.80
2019-02-14T20:05:09.950Z,20.02
2019-02-14T20:07:39.353Z,22.35
2019-02-14T20:10:09.852Z,25.02
2019-02-14T20:12:38.626Z,21.33
2019-02-14T20:15:10.333Z,20.40
2019-02-14T20:17:40.678Z,19.77
2019-02-14T20:20:09.893Z,20.20
2019-02-14T20:22:39.902Z,19.40
2019-02-14T20:25:09.989Z,20.80
2019-02-14T20:27:38.706Z,18.73
2019-02-14T20:30:07.653Z,19.98
2019-02-14T20:32:40.484Z,18.40
2019-02-14T20:35:09.471Z,19.00
2019-02-14T20:37:38.282Z,19.80
2019-02-14T20:40:07.485Z,18.25
2019-02-14T20:42:38.034Z,18.62
2019-02-14T20:45:07.852Z,19.98
2019-02-14T20:47:36.622Z,18.48
2019-02-14T20:50:05.922Z,19.32
2019-02-14T20:52:34.786Z,18.73
2019-02-14T20:55:03.524Z,21.90
2019-02-14T20:57:32.247Z,20.32
2019-02-14T21:00:01.046Z,21.40
2019-02-14T21:02:29.857Z,19.50
2019-02-14T21:05:00.156Z,20.23
2019-02-14T21:07:29.135Z,19.85
2019-02-14T21:09:57.852Z,22.75
2019-02-14T21:12:26.675Z,18.80
2019-02-14T21:14:55.398Z,23.20
2019-02-14T21:17:24.140Z,25.85
2019-02-14T21:19:52.954Z,23.67
2019-02-14T21:22:21.689Z,21.60
2019-02-14T21:24:50.449Z,22.50
2019-02-14T21:27:20.040Z,22.42
2019-02-14T21:29:51.543Z,24.35
2019-02-14T21:32:20.303Z,23.85
2019-02-14T21:34:49.875Z,26.40
2019-02-14T21:37:18.996Z,24.18
2019-02-14T21:39:47.862Z,25.60
2019-02-14T21:42:20.791Z,24.43
2019-02-14T21:44:48.801Z,22.67
2019-02-14T21:47:17.744Z,24.67
2019-02-14T21:49:46.728Z,23.92
2019-02-14T21:52:15.582Z,24.87
2019-02-14T21:54:44.428Z,23.00
2019-02-14T21:57:13.472Z,22.17
2019-02-14T21:59:44.608Z,22.50
2019-02-14T22:02:13.316Z,22.65
2019-02-14T22:04:42.149Z,22.67
2019-02-14T22:07:13.301Z,27.65
2019-02-14T22:09:42.142Z,26.93
2019-02-14T22:12:10.896Z,34.33
2019-02-14T22:14:39.704Z,26.27
2019-02-14T22:17:08.496Z,26.25
2019-02-14T22:19:37.250Z,25.77
2019-02-14T22:22:07.594Z,26.95
2019-02-14T22:24:36.328Z,25.68
2019-02-14T22:27:05.938Z,24.92
2019-02-14T22:29:34.663Z,23.32
2019-02-14T22:32:04.474Z,22.20
2019-02-14T22:34:33.194Z,21.93
2019-02-14T22:37:01.926Z,23.02
2019-02-14T22:39:30.687Z,22.37
2019-02-14T22:41:59.426Z,21.60
2019-02-14T22:44:28.196Z,20.50
2019-02-14T22:46:56.890Z,20.32
2019-02-14T22:49:25.654Z,20.90
2019-02-14T22:51:54.374Z,22.05
2019-02-14T22:54:23.158Z,21.75
2019-02-14T22:56:51.903Z,20.72
2019-02-14T22:59:20.691Z,19.50
2019-02-14T23:01:49.403Z,20.72
2019-02-14T23:04:18.218Z,20.52
2019-02-14T23:06:46.942Z,19.48
2019-02-14T23:09:15.811Z,19.32
2019-02-14T23:11:44.552Z,19.92
2019-02-14T23:14:13.287Z,19.65
2019-02-14T23:16:42.014Z,20.90
2019-02-14T23:19:10.760Z,21.37
2019-02-14T23:21:39.562Z,20.72
2019-02-14T23:24:08.354Z,20.95
2019-02-14T23:26:37.093Z,20.95
2019-02-14T23:29:05.920Z,20.52
2019-02-14T23:31:34.660Z,19.65
2019-02-14T23:34:03.390Z,19.20
2019-02-14T23:36:32.286Z,18.98
2019-02-14T23:39:00.979Z,18.27
2019-02-14T23:41:29.706Z,17.55
2019-02-14T23:43:58.426Z,18.02
2019-02-14T23:46:27.135Z,18.27
2019-02-14T23:48:55.976Z,17.12
2019-02-14T23:51:24.714Z,18.17
2019-02-14T23:53:53.510Z,17.90
2019-02-14T23:56:22.295Z,18.17
2019-02-14T23:58:53.215Z,17.67
